sensor_id;sensor_type;location;lat;lon;timestamp;P1;durP1;ratioP1;P2;durP2;ratioP2
46505;SDS011;32220;49.808;9.968;2024-01-07T09:46:09;7.57;;;5.77;;
46505;SDS011;32220;49.808;9.968;2024-01-07T09:48:37;6.73;;;5.40;;
46505;SDS011;32220;49.808;9.968;2024-01-07T09:51:25;6.27;;;5.47;;
46505;SDS011;32220;49.808;9.968;2024-01-07T09:54:04;7.70;;;4.90;;
46505;SDS011;32220;49.808;9.968;2024-01-07T09:56:42;6.17;;;4.80;;
46505;SDS011;32220;49.808;9.968;2024-01-07T09:59:34;7.33;;;5.13;;
46505;SDS011;32220;49.808;9.968;2024-01-07T10:02:24;8.53;;;5.90;;
46505;SDS011;32220;49.808;9.968;2024-01-07T10:04:52;7.10;;;5.73;;
46505;SDS011;32220;49.808;9.968;2024-01-07T10:07:19;8.00;;;5.60;;
46505;SDS011;32220;49.808;9.968;2024-01-07T10:09:47;7.83;;;5.63;;
46505;SDS011;32220;49.808;9.968;2024-01-07T10:12:38;7.97;;;5.40;;
46505;SDS011;32220;49.808;9.968;2024-01-07T10:15:24;8.63;;;5.37;;
46505;SDS011;32220;49.808;9.968;2024-01-07T10:17:55;6.13;;;4.87;;
46505;SDS011;32220;49.808;9.968;2024-01-07T10:20:31;6.73;;;4.80;;
46505;SDS011;32220;49.808;9.968;2024-01-07T10:23:06;6.83;;;5.03;;
46505;SDS011;32220;49.808;9.968;2024-01-07T10:25:38;7.47;;;5.60;;
46505;SDS011;32220;49.808;9.968;2024-01-07T10:28:06;7.77;;;5.40;;
46505;SDS011;32220;49.808;9.968;2024-01-07T10:30:34;7.87;;;5.27;;
46505;SDS011;32220;49.808;9.968;2024-01-07T10:33:08;10.30;;;4.97;;
46505;SDS011;32220;49.808;9.968;2024-01-07T10:35:36;7.63;;;5.17;;
46505;SDS011;32220;49.808;9.968;2024-01-07T10:38:07;6.00;;;4.80;;
46505;SDS011;32220;49.808;9.968;2024-01-07T10:40:35;7.37;;;5.50;;
46505;SDS011;32220;49.808;9.968;2024-01-07T10:43:04;5.70;;;4.67;;
46505;SDS011;32220;49.808;9.968;2024-01-07T10:45:47;6.90;;;5.23;;
46505;SDS011;32220;49.808;9.968;2024-01-07T10:48:18;7.07;;;4.97;;
46505;SDS011;32220;49.808;9.968;2024-01-07T10:50:46;6.97;;;5.00;;
46505;SDS011;32220;49.808;9.968;2024-01-07T10:53:18;6.23;;;4.70;;
46505;SDS011;32220;49.808;9.968;2024-01-07T10:55:50;7.63;;;4.80;;
46505;SDS011;32220;49.808;9.968;2024-01-07T10:58:21;7.77;;;5.23;;
46505;SDS011;32220;49.808;9.968;2024-01-07T11:00:50;5.60;;;4.57;;
46505;SDS011;32220;49.808;9.968;2024-01-07T11:06:09;5.00;;;4.47;;
46505;SDS011;32220;49.808;9.968;2024-01-07T11:09:02;5.60;;;4.33;;
46505;SDS011;32220;49.808;9.968;2024-01-07T11:11:35;6.13;;;4.77;;
46505;SDS011;32220;49.808;9.968;2024-01-07T11:14:33;6.37;;;5.13;;
46505;SDS011;32220;49.808;9.968;2024-01-07T11:17:05;5.37;;;4.57;;
46505;SDS011;32220;49.808;9.968;2024-01-07T11:19:38;6.90;;;4.60;;
46505;SDS011;32220;49.808;9.968;2024-01-07T13:56:46;8.43;;;4.30;;
46505;SDS011;32220;49.808;9.968;2024-01-07T13:59:14;8.20;;;4.10;;
46505;SDS011;32220;49.808;9.968;2024-01-07T14:01:43;6.17;;;4.10;;
46505;SDS011;32220;49.808;9.968;2024-01-07T14:04:19;4.57;;;3.63;;
46505;SDS011;32220;49.808;9.968;2024-01-07T14:06:46;5.47;;;3.87;;
46505;SDS011;32220;49.808;9.968;2024-01-07T14:09:15;5.07;;;3.50;;
46505;SDS011;32220;49.808;9.968;2024-01-07T14:11:46;5.27;;;3.80;;
46505;SDS011;32220;49.808;9.968;2024-01-07T14:14:14;5.47;;;3.57;;
46505;SDS011;32220;49.808;9.968;2024-01-07T14:16:41;5.33;;;3.47;;
46505;SDS011;32220;49.808;9.968;2024-01-07T14:19:11;4.97;;;3.30;;
46505;SDS011;32220;49.808;9.968;2024-01-07T14:21:40;6.67;;;3.67;;
46505;SDS011;32220;49.808;9.968;2024-01-07T14:24:09;5.47;;;3.40;;
46505;SDS011;32220;49.808;9.968;2024-01-07T14:26:41;7.10;;;3.73;;
46505;SDS011;32220;49.808;9.968;2024-01-07T14:29:10;4.73;;;3.70;;
46505;SDS011;32220;49.808;9.968;2024-01-07T14:31:39;4.70;;;3.40;;
46505;SDS011;32220;49.808;9.968;2024-01-07T14:34:07;4.30;;;3.37;;
46505;SDS011;32220;49.808;9.968;2024-01-07T14:36:39;4.87;;;3.73;;
46505;SDS011;32220;49.808;9.968;2024-01-07T14:39:06;6.43;;;3.60;;
46505;SDS011;32220;49.808;9.968;2024-01-07T14:41:34;4.60;;;2.80;;
46505;SDS011;32220;49.808;9.968;2024-01-07T14:44:03;5.30;;;3.57;;
46505;SDS011;32220;49.808;9.968;2024-01-07T14:46:32;7.03;;;3.37;;
46505;SDS011;32220;49.808;9.968;2024-01-07T14:48:59;3.93;;;3.30;;
46505;SDS011;32220;49.808;9.968;2024-01-07T14:51:27;5.90;;;3.80;;
46505;SDS011;32220;49.808;9.968;2024-01-07T14:53:56;7.70;;;4.33;;
46505;SDS011;32220;49.808;9.968;2024-01-07T14:56:24;9.97;;;5.67;;
46505;SDS011;32220;49.808;9.968;2024-01-07T14:58:51;6.90;;;4.43;;
46505;SDS011;32220;49.808;9.968;2024-01-07T15:01:19;8.37;;;4.80;;
46505;SDS011;32220;49.808;9.968;2024-01-07T15:03:48;7.00;;;4.30;;
